Weather at Pauma Valley Air Park

Public forecast

Using degrees Fahrenheit for public forecast. Weather courtesy of forecast.io.

Closest aviation weather report (METAR) to Pauma Valley Air Park

Closest report is Ramona Airport, 16.8 nm (31.2 km) SSE. Retrieved 2021/07/30 18:53 UTC (30 minutes ago):

KRNM 301853Z 29008KT 10SM CLR 33/12 A2994 RMK AO2 SLP120 T03280122

Closest aviation forecast (TAF) to Pauma Valley Air Park

Closest forecast is Mc Clellan-Palomar Airport, 17.9 nm (33.2 km) SW. Retrieved 2021/07/30 18:30 UTC (53 minutes ago):

TAF KCRQ 301729Z 3018/3118 27005KT P6SM SCT007 SCT150 FM302000 25008KT P6SM SCT150 FM310000 VRB04KT P6SM FEW008 SCT150 FM310500 VRB04KT P6SM BKN006 FM311200 VRB04KT 1SM BR BKN003 FM311600 VRB04KT 6SM HZ SCT004 SCT150